Hauptseite
METAR-TAF:

METAR-TAF

Flughäfen :

Ankara Esenboğa, Türkei

Flughafen Ankara-Esenboğa

Breite: 40-07N, Länge: 032-59E, Höhe: 953 m

Beobachtung

Neuester Wetterbericht von vor 27 Minuten, um 07:50 UTC
Wind 2 kt aus unterschiedlichen Richtungen
Temperatur 20°C
Luftfeuchtigkeit 21%
Luftdruck 1019 hPa
Sichtweite 10 km oder mehr
keine Wolken unter 1500 m und keine Kumulonimbus oder Gewitterwolken

METAR: LTAC 280750Z VRB02KT CAVOK 20/M03 Q1019 NOSIG RMK RWY21L 30003KT RWY03L VRB02KT RWY21R VRB02KT

Zeit: 11:17 (08:17 UTC)

Prognose

Neuester Wetterbericht von vor 3 Stunden und 37 Minuten, um 04:40 UTC
Gültige Prognose vom 28 um 06 UTC bis 29 um 06 UTC
Wind 2 kt aus unterschiedlichen Richtungen
Sichtweite 10 km oder mehr
keine Wolken unter 1500 m und keine Kumulonimbus oder Gewitterwolken

TAF: LTAC 280440Z 2806/2906 VRB02KT CAVOK

Wetterbeobachtungen und Prognosen von mehr als 4000 Flughäfen (METAR und TAF Bericht).

Die verfügbaren Stationen werden durch gelbe und rote Markierungen auf der Karte dargestellt.

Führen Sie die Maus auf sie, um den Namen der Station zu sehen.

Darauf klicken, um die Beobachtung von Wetterbeobachtungen und Prognosen zu sehen.

Um die Karte zu ändern : klicken Sie auf den grünen Tasten mit einem schwarzen Kreuz Zum Vergrößern, auf den grünen Button mit einem Gedankenstrich zu verkleinern, oder auf die grünen Pfeile für benachbarte Karten.


METAR-TAF: